Agana Heights, GU

3:24 PM ChST on August 02, 2015 (GMT +1000)
Maite | | Change Station
CLOSE
Current Station
Personal Weather Station
Location: Maite, GU
Elevation: 140 ft
Nearby Weather Stations

Elev 140 ft 13.48 °N, 144.76 °E | Updated 4 seconds ago

Scattered Clouds
Scattered Clouds
84.8 °F
Feels Like 98 °F
N
19.0
Wind Variable Wind from NNW
Gusts 24.0 mph

Today
High -- | Low -- °F
--% Chance of Precip.
Yesterday
High -- | Low -- °F
Precip. -- in
6:05 AM 6:48 PM
Waning Gibbous, 95% visible
Pressure 29.63 in
Visibility 10.0 miles
Clouds Few 2200 ft
Scattered Clouds 3000 ft
Heat Index 98 °F
Dew Point 79 °F
Humidity 83%
Rainfall 0.02 in
Snow Depth Not available.
UV 2.2 out of 12
Pollen Not available.
Air Quality Not available.
Flu Activity Not available.
SPECI PGUM 020519Z 32011G18KT 10SM FEW022 SCT030 29/24 A2963 RMK AO2 RAE0456 P0000

More Conditions Fewer Conditions

Pressure 29.63 in
Visibility 10.0 miles
Clouds Few 2200 ft
Scattered Clouds 3000 ft
Heat Index 98 °F
Dew Point 79 °F
Humidity 83%
Rainfall 0.02 in
Snow Depth Not available.
UV 2.2 out of 12
Pollen Not available.
Air Quality Not available.
Flu Activity Not available.
SPECI PGUM 020519Z 32011G18KT 10SM FEW022 SCT030 29/24 A2963 RMK AO2 RAE0456 P0000

More Conditions Fewer Conditions

10-Day Weather Forecast

×

Almanac

Astronomy

Aug. 02, 2015 Rise Set
Actual Time
Civil Twilight
Nautical Twilight
Astronomical Twilight
Moon
Length of Visible Light
Length of Day
Tomorrow will be .
, % of the Moon is Illuminated

Today's Extremes

State Highs State Lows

Community

WunderPhotos

Upload Photos

1,843,197 photos uploaded!

WunderBlogs® & News

Nearby

Air Quality

  Air Quality AQ Index Pollutant
Not available.

Snow Depth

Station Depth Elevation

Earthquake Activity

City Distance Mag. Time & Date
Minimum magnitude displayed is 2.5.

Coastal Water Temperatures

Place Temperature

Stations

Nearby Weather Stations

Station Location Temp. Windchill Dew Point Humidity Wind Precip. Elev Updated Type